Time;durP1;ratioP1;P1;durP2;ratioP2;P2;SDS_P1;SDS_P2;PMS_P1;PMS_P2;Temp;Humidity;BMP_temperature;BMP_pressure;BME280_temperature;BME280_humidity;BME280_pressure;Samples;Min_cycle;Max_cycle;Signal;HPM_P1;HPM_P2
2023/10/08 00:00:46;;;;;;;1.00;0.47;;;14.20;75.60;;;;;;5110905;28;20232;-64
2023/10/08 00:03:14;;;;;;;0.57;0.57;;;14.20;74.90;;;;;;5107126;28;20199;-64
2023/10/08 00:05:49;;;;;;;0.73;0.53;;;14.20;75.00;;;;;;5110304;28;20228;-65
2023/10/08 00:08:16;;;;;;;1.70;0.40;;;14.20;74.90;;;;;;5110724;28;20214;-65
2023/10/08 00:10:44;;;;;;;0.40;0.40;;;14.20;74.90;;;;;;5108127;28;20276;-63
2023/10/08 00:13:15;;;;;;;0.40;0.40;;;14.10;74.60;;;;;;5106707;28;20264;-64
2023/10/08 00:15:51;;;;;;;0.90;0.60;;;14.10;74.50;;;;;;5110259;28;20250;-64
2023/10/08 00:18:19;;;;;;;1.23;0.67;;;14.10;74.60;;;;;;5108707;28;20209;-65
2023/10/08 00:20:47;;;;;;;0.50;0.50;;;14.10;74.50;;;;;;5110150;28;20220;-65
2023/10/08 00:23:17;;;;;;;1.20;0.50;;;14.00;74.50;;;;;;5107127;28;20188;-65
2023/10/08 00:25:47;;;;;;;0.77;0.40;;;14.10;74.60;;;;;;5109137;27;20204;-65
2023/10/08 00:28:18;;;;;;;2.60;0.60;;;14.10;74.30;;;;;;5107464;28;20198;-64
2023/10/08 00:30:45;;;;;;;0.40;0.40;;;14.10;74.30;;;;;;5107610;28;20191;-65
2023/10/08 00:33:13;;;;;;;0.80;0.50;;;14.00;74.00;;;;;;5144113;27;20728;-64
2023/10/08 00:35:41;;;;;;;0.67;0.40;;;14.00;73.80;;;;;;5109428;28;20198;-64
2023/10/08 00:38:14;;;;;;;1.03;0.40;;;13.90;73.60;;;;;;5107035;28;20605;-65
2023/10/08 00:40:45;;;;;;;1.03;0.47;;;13.90;73.60;;;;;;5110933;28;20208;-65
2023/10/08 00:43:34;;;;;;;0.77;0.40;;;13.90;73.60;;;;;;5110999;28;20412;-64
2023/10/08 00:46:01;;;;;;;0.80;0.47;;;13.90;73.60;;;;;;5109518;28;20203;-65
2023/10/08 00:48:34;;;;;;;0.40;0.40;;;13.90;73.40;;;;;;5115956;27;20192;-65
2023/10/08 00:51:14;;;;;;;0.53;0.53;;;13.80;73.00;;;;;;5106384;28;20190;-64
2023/10/08 00:53:46;;;;;;;2.07;0.67;;;13.80;73.00;;;;;;5107251;28;20354;-64
2023/10/08 00:56:18;;;;;;;0.63;0.50;;;13.70;72.80;;;;;;5109484;28;20195;-64
2023/10/08 00:58:51;;;;;;;0.63;0.50;;;13.70;72.80;;;;;;5107478;28;20192;-64
2023/10/08 01:01:20;;;;;;;0.63;0.50;;;13.60;72.70;;;;;;5110695;28;20229;-64
2023/10/08 01:03:49;;;;;;;0.67;0.43;;;13.60;72.70;;;;;;5110561;28;20213;-65
2023/10/08 01:06:19;;;;;;;0.47;0.47;;;13.60;72.60;;;;;;5106959;28;20674;-64
2023/10/08 01:08:52;;;;;;;0.67;0.50;;;13.60;72.70;;;;;;5109638;28;20194;-65
2023/10/08 01:11:22;;;;;;;0.53;0.40;;;13.60;72.50;;;;;;5140375;27;20207;-64
2023/10/08 01:13:50;;;;;;;1.17;0.50;;;13.50;72.40;;;;;;5108427;28;20195;-65
2023/10/08 01:16:18;;;;;;;0.67;0.60;;;13.50;72.30;;;;;;5141687;27;20757;-64
2023/10/08 01:18:50;;;;;;;0.97;0.40;;;13.50;72.20;;;;;;5106098;28;20212;-64
2023/10/08 01:21:33;;;;;;;0.53;0.47;;;13.50;72.10;;;;;;5108216;28;20226;-65
2023/10/08 01:24:05;;;;;;;1.20;0.60;;;13.50;72.40;;;;;;5105639;28;20203;-64
2023/10/08 01:26:33;;;;;;;1.53;0.50;;;13.40;71.30;;;;;;5106581;28;20209;-65
2023/10/08 01:29:03;;;;;;;1.07;0.40;;;13.40;71.20;;;;;;5108906;28;20199;-65
2023/10/08 01:31:31;;;;;;;1.00;0.70;;;13.40;71.20;;;;;;5108467;28;20294;-65
2023/10/08 01:34:00;;;;;;;1.07;0.53;;;13.30;70.70;;;;;;5106699;28;20195;-65
2023/10/08 01:36:28;;;;;;;0.93;0.50;;;13.30;70.60;;;;;;5142366;27;20256;-65
2023/10/08 01:38:55;;;;;;;0.30;0.30;;;13.30;70.20;;;;;;5107227;28;20302;-66
2023/10/08 01:41:29;;;;;;;1.33;0.40;;;13.30;70.20;;;;;;5142308;27;20303;-65
2023/10/08 01:43:58;;;;;;;0.40;0.40;;;13.20;70.00;;;;;;5107523;28;20287;-65
2023/10/08 01:46:27;;;;;;;0.40;0.40;;;13.30;70.10;;;;;;5107434;28;20691;-65
2023/10/08 01:49:00;;;;;;;0.63;0.50;;;13.30;70.10;;;;;;5109632;28;20204;-65
2023/10/08 01:51:38;;;;;;;0.57;0.50;;;13.30;70.00;;;;;;5109511;28;20195;-65
2023/10/08 01:54:10;;;;;;;0.50;0.40;;;13.30;69.70;;;;;;5105115;28;20226;-64
2023/10/08 01:56:42;;;;;;;0.37;0.37;;;13.20;69.50;;;;;;5111975;28;20258;-65
2023/10/08 01:59:11;;;;;;;0.77;0.40;;;13.20;69.20;;;;;;5128855;27;20739;-64
2023/10/08 02:01:39;;;;;;;0.40;0.40;;;13.10;68.90;;;;;;5108818;28;20237;-64
2023/10/08 02:04:08;;;;;;;1.73;0.60;;;13.10;68.90;;;;;;5112401;28;20225;-64
2023/10/08 02:06:39;;;;;;;0.97;0.50;;;13.00;68.80;;;;;;5109690;28;20186;-64
2023/10/08 02:09:07;;;;;;;1.60;0.60;;;13.00;68.50;;;;;;5112131;28;20277;-65
2023/10/08 02:11:44;;;;;;;0.97;0.60;;;13.00;68.40;;;;;;5107104;28;20247;-65
2023/10/08 02:14:15;;;;;;;0.87;0.50;;;13.00;68.30;;;;;;5110086;28;20187;-64
2023/10/08 02:16:43;;;;;;;0.87;0.43;;;12.90;68.20;;;;;;5111734;28;20437;-64
2023/10/08 02:19:11;;;;;;;0.77;0.60;;;12.90;67.80;;;;;;5112419;28;20223;-64
2023/10/08 02:21:41;;;;;;;0.40;0.40;;;12.90;67.60;;;;;;5108888;28;20213;-64
2023/10/08 02:24:11;;;;;;;0.60;0.60;;;12.90;67.60;;;;;;5112721;28;20197;-64
2023/10/08 02:26:39;;;;;;;0.40;0.40;;;12.90;67.40;;;;;;5110941;28;20197;-65
2023/10/08 02:29:10;;;;;;;0.57;0.40;;;12.90;67.20;;;;;;5108506;28;20201;-65
2023/10/08 02:31:41;;;;;;;0.30;0.30;;;12.90;67.00;;;;;;5110138;28;20271;-65
2023/10/08 02:34:08;;;;;;;0.47;0.40;;;12.90;67.00;;;;;;5110810;28;20190;-65
2023/10/08 02:36:37;;;;;;;0.40;0.40;;;12.90;66.80;;;;;;5110892;28;20202;-64
2023/10/08 02:39:13;;;;;;;2.00;0.57;;;12.90;66.70;;;;;;5112691;28;20717;-65
2023/10/08 02:41:42;;;;;;;0.73;0.40;;;12.90;66.40;;;;;;5109997;28;20206;-65
2023/10/08 02:44:12;;;;;;;0.40;0.40;;;12.80;66.10;;;;;;5111294;28;20193;-65
2023/10/08 02:46:41;;;;;;;0.40;0.40;;;12.80;66.10;;;;;;5111653;27;20268;-64
2023/10/08 02:49:10;;;;;;;1.10;0.50;;;12.80;66.00;;;;;;5142160;27;20206;-64
2023/10/08 02:51:39;;;;;;;0.60;0.30;;;12.80;65.80;;;;;;5109891;28;20197;-65
2023/10/08 02:54:08;;;;;;;0.50;0.50;;;12.80;65.60;;;;;;5107862;28;20218;-65
2023/10/08 02:56:36;;;;;;;1.80;0.50;;;12.80;65.60;;;;;;5109580;28;20290;-65
2023/10/08 02:59:05;;;;;;;0.60;0.43;;;12.80;65.50;;;;;;5112668;28;20642;-64
2023/10/08 03:01:34;;;;;;;0.40;0.40;;;12.70;65.20;;;;;;5107892;28;20238;-64
2023/10/08 03:04:08;;;;;;;1.93;0.50;;;12.70;64.90;;;;;;5125293;27;20216;-65
2023/10/08 03:06:35;;;;;;;0.40;0.40;;;12.70;65.00;;;;;;5110898;28;20208;-65
2023/10/08 03:09:04;;;;;;;1.03;0.60;;;12.70;65.00;;;;;;5107164;28;20629;-65
2023/10/08 03:11:31;;;;;;;0.30;0.30;;;12.60;64.90;;;;;;5110659;28;20243;-64
2023/10/08 03:13:59;;;;;;;0.30;0.30;;;12.60;64.80;;;;;;5110747;27;20211;-64
2023/10/08 03:16:33;;;;;;;0.60;0.60;;;12.60;64.90;;;;;;5103076;28;20220;-64
2023/10/08 03:19:05;;;;;;;0.83;0.67;;;12.60;64.50;;;;;;5111674;28;20723;-64
2023/10/08 03:24:37;;;;;;;0.57;0.57;;;12.60;64.40;;;;;;5109109;27;20289;-64
2023/10/08 03:27:11;;;;;;;0.50;0.50;;;12.60;64.40;;;;;;5110398;28;20209;-65
2023/10/08 03:29:41;;;;;;;0.93;0.60;;;12.60;64.30;;;;;;5107805;28;20197;-65
2023/10/08 03:32:15;;;;;;;0.60;0.60;;;12.60;64.30;;;;;;5117993;27;20223;-65
2023/10/08 03:34:47;;;;;;;0.60;0.60;;;12.60;64.30;;;;;;5124598;27;20639;-64
2023/10/08 03:37:19;;;;;;;0.50;0.50;;;12.60;64.10;;;;;;5107457;28;20494;-65
2023/10/08 03:40:00;;;;;;;0.77;0.47;;;12.50;64.00;;;;;;5116049;27;20210;-64
2023/10/08 03:42:34;;;;;;;1.43;0.60;;;12.50;63.90;;;;;;5111627;27;20638;-64
2023/10/08 03:45:11;;;;;;;0.50;0.50;;;12.50;64.00;;;;;;5108401;28;20193;-65
2023/10/08 03:47:46;;;;;;;1.50;0.50;;;12.50;64.00;;;;;;5115061;27;20196;-65
2023/10/08 03:50:17;;;;;;;0.40;0.40;;;12.50;64.00;;;;;;5107542;28;20190;-64
2023/10/08 03:52:44;;;;;;;1.57;0.50;;;12.40;63.90;;;;;;5110065;28;20781;-64
2023/10/08 03:55:21;;;;;;;0.70;0.50;;;12.40;64.10;;;;;;5110783;28;20262;-64
2023/10/08 03:57:56;;;;;;;1.13;0.50;;;12.40;64.10;;;;;;5107582;28;20251;-65
2023/10/08 04:00:32;;;;;;;0.63;0.50;;;12.40;64.80;;;;;;5111212;28;20221;-65
2023/10/08 04:03:07;;;;;;;0.40;0.40;;;12.40;64.10;;;;;;5109720;28;20207;-65
2023/10/08 04:05:44;;;;;;;0.57;0.43;;;12.40;64.20;;;;;;5106902;28;20192;-65
2023/10/08 04:08:24;;;;;;;1.63;0.63;;;12.40;64.20;;;;;;5109834;28;20765;-64
2023/10/08 04:13:32;;;;;;;0.33;0.33;;;12.40;64.50;;;;;;5099675;28;20228;-65
2023/10/08 04:15:59;;;;;;;0.93;0.30;;;12.30;64.40;;;;;;5109282;28;20212;-65
2023/10/08 04:18:27;;;;;;;0.60;0.60;;;12.30;64.40;;;;;;5107063;28;20228;-65
2023/10/08 04:21:04;;;;;;;1.80;0.70;;;12.30;64.60;;;;;;5110457;28;20239;-64
2023/10/08 04:23:32;;;;;;;0.67;0.40;;;12.20;64.70;;;;;;5103636;28;20205;-64
2023/10/08 04:25:59;;;;;;;1.03;0.50;;;12.20;64.60;;;;;;5106380;28;20652;-64
2023/10/08 04:28:31;;;;;;;1.00;0.73;;;12.20;64.80;;;;;;5110961;28;20208;-65
2023/10/08 04:31:14;;;;;;;0.43;0.40;;;12.20;64.90;;;;;;5107637;28;20205;-65
2023/10/08 04:33:44;;;;;;;0.77;0.50;;;12.20;64.90;;;;;;5110021;28;20206;-64
2023/10/08 04:36:17;;;;;;;0.40;0.40;;;12.10;64.90;;;;;;5109700;28;20230;-65
2023/10/08 04:38:47;;;;;;;0.93;0.63;;;12.20;65.10;;;;;;5106044;28;20213;-64
2023/10/08 04:41:18;;;;;;;0.67;0.40;;;12.20;65.10;;;;;;5103069;28;20205;-64
2023/10/08 04:43:49;;;;;;;0.50;0.47;;;12.10;65.10;;;;;;5110221;28;20205;-64
2023/10/08 04:49:09;;;;;;;0.73;0.40;;;12.10;65.20;;;;;;5098878;28;20204;-65
2023/10/08 04:51:43;;;;;;;1.07;0.53;;;12.10;65.20;;;;;;5108642;28;20271;-65
2023/10/08 04:54:17;;;;;;;0.87;0.50;;;12.20;65.30;;;;;;5108212;28;20199;-64
2023/10/08 04:56:49;;;;;;;6.50;0.90;;;12.20;66.10;;;;;;5110469;28;20590;-64
2023/10/08 04:59:21;;;;;;;0.47;0.40;;;12.10;65.20;;;;;;5106847;28;20194;-65
2023/10/08 05:01:48;;;;;;;0.50;0.50;;;12.10;65.30;;;;;;5110610;28;20564;-64
2023/10/08 05:07:39;;;;;;;0.97;0.50;;;12.10;65.50;;;;;;5105889;28;20204;-64
2023/10/08 05:13:15;;;;;;;0.40;0.40;;;12.10;65.60;;;;;;5107456;28;20203;-65
2023/10/08 05:15:49;;;;;;;1.43;0.60;;;12.10;65.70;;;;;;5110334;28;20188;-65
2023/10/08 05:18:23;;;;;;;2.30;0.73;;;12.10;65.80;;;;;;5102579;28;20200;-65
2023/10/08 05:20:59;;;;;;;0.37;0.37;;;12.10;65.90;;;;;;5136612;27;20589;-65
2023/10/08 05:26:20;;;;;;;1.23;0.70;;;12.00;66.10;;;;;;5101808;28;22141;-65
2023/10/08 05:29:00;;;;;;;0.47;0.47;;;12.00;66.30;;;;;;5099563;28;20298;-65
2023/10/08 05:31:46;;;;;;;2.73;0.50;;;12.00;66.50;;;;;;5111514;28;20200;-65
2023/10/08 05:34:18;;;;;;;1.07;0.73;;;12.00;66.60;;;;;;5109999;28;20200;-64
2023/10/08 05:37:11;;;;;;;0.60;0.60;;;12.00;66.70;;;;;;5113120;28;20665;-64
2023/10/08 05:39:42;;;;;;;0.97;0.67;;;12.00;66.80;;;;;;5112724;28;20241;-64
2023/10/08 05:42:16;;;;;;;0.57;0.50;;;11.90;67.60;;;;;;5112402;28;20200;-64
2023/10/08 05:44:46;;;;;;;0.50;0.50;;;12.00;67.00;;;;;;5107463;28;20195;-64
2023/10/08 05:47:38;;;;;;;0.50;0.50;;;12.00;67.10;;;;;;5113619;27;20281;-63
2023/10/08 05:53:01;;;;;;;0.97;0.60;;;12.00;67.10;;;;;;5101900;28;20209;-64
2023/10/08 05:55:34;;;;;;;1.20;0.60;;;12.00;67.20;;;;;;5111356;28;20319;-63
2023/10/08 05:58:13;;;;;;;0.60;0.60;;;12.00;67.30;;;;;;5110662;28;20192;-64
2023/10/08 06:00:46;;;;;;;0.50;0.50;;;12.00;67.30;;;;;;5106550;28;20336;-64
2023/10/08 06:08:51;;;;;;;0.60;0.30;;;12.10;67.30;;;;;;5108202;28;20191;-65
2023/10/08 06:11:41;;;;;;;0.50;0.50;;;12.20;67.40;;;;;;5112570;28;20204;-65
2023/10/08 06:14:16;;;;;;;0.70;0.60;;;12.20;67.40;;;;;;5102231;28;20184;-65
2023/10/08 06:16:44;;;;;;;0.63;0.50;;;12.20;67.50;;;;;;5112074;28;20256;-64
2023/10/08 06:19:15;;;;;;;0.50;0.50;;;12.20;67.50;;;;;;5111528;28;20659;-64
2023/10/08 06:21:42;;;;;;;0.43;0.40;;;12.20;67.60;;;;;;5108405;28;20203;-64
2023/10/08 06:24:10;;;;;;;0.37;0.37;;;12.30;67.80;;;;;;5145276;27;20217;-65
2023/10/08 06:26:44;;;;;;;0.50;0.50;;;12.30;67.80;;;;;;5113179;28;20207;-65
2023/10/08 06:29:27;;;;;;;0.87;0.40;;;12.30;67.80;;;;;;5108028;28;20289;-64
2023/10/08 06:31:55;;;;;;;1.07;0.60;;;12.40;67.90;;;;;;5111973;28;20193;-65
2023/10/08 06:34:25;;;;;;;0.73;0.73;;;12.50;67.90;;;;;;5112383;28;20278;-64
2023/10/08 06:36:53;;;;;;;0.77;0.70;;;12.50;67.80;;;;;;5108642;27;20242;-64
2023/10/08 06:39:25;;;;;;;0.57;0.57;;;12.50;67.70;;;;;;5111267;28;20192;-64
2023/10/08 06:41:57;;;;;;;0.40;0.40;;;12.50;67.80;;;;;;5112819;28;20204;-64
2023/10/08 06:44:28;;;;;;;0.50;0.50;;;12.40;68.10;;;;;;5143108;27;20216;-65
2023/10/08 06:46:56;;;;;;;1.20;0.70;;;12.50;67.40;;;;;;5113428;28;20312;-64
2023/10/08 06:49:24;;;;;;;0.53;0.43;;;12.50;67.30;;;;;;5107748;28;20196;-64
2023/10/08 06:51:53;;;;;;;0.50;0.50;;;12.50;67.20;;;;;;5111662;28;20228;-64
2023/10/08 06:54:22;;;;;;;0.43;0.43;;;12.50;67.30;;;;;;5111728;28;20202;-64
2023/10/08 06:56:53;;;;;;;0.50;0.50;;;12.50;67.20;;;;;;5109138;28;20533;-64
2023/10/08 06:59:23;;;;;;;1.40;0.60;;;12.50;67.30;;;;;;5112633;28;20610;-64
2023/10/08 07:01:51;;;;;;;0.60;0.60;;;12.60;67.30;;;;;;5100066;28;20711;-63
2023/10/08 07:04:20;;;;;;;1.10;0.80;;;12.70;67.20;;;;;;5106335;27;20994;-65
2023/10/08 07:06:47;;;;;;;0.80;0.50;;;12.60;66.90;;;;;;5110900;28;20320;-63
2023/10/08 07:09:29;;;;;;;1.50;0.70;;;12.70;67.10;;;;;;5111745;28;20682;-64
2023/10/08 07:11:56;;;;;;;1.17;0.50;;;12.70;67.10;;;;;;5108615;28;20195;-65
2023/10/08 07:14:26;;;;;;;0.60;0.40;;;12.70;67.10;;;;;;5112411;28;20607;-65
2023/10/08 07:16:54;;;;;;;0.57;0.57;;;12.70;67.10;;;;;;5110156;28;20568;-64
2023/10/08 07:19:32;;;;;;;1.07;0.50;;;12.70;67.20;;;;;;5110607;28;20224;-65
2023/10/08 07:22:06;;;;;;;0.70;0.60;;;12.70;67.30;;;;;;5144448;27;20200;-65
2023/10/08 07:24:36;;;;;;;1.20;0.50;;;12.70;67.30;;;;;;5107047;28;20301;-65
2023/10/08 07:27:09;;;;;;;1.17;0.60;;;12.70;67.20;;;;;;5112488;27;20275;-65
2023/10/08 07:29:37;;;;;;;0.50;0.50;;;12.80;67.20;;;;;;5109254;28;20199;-64
2023/10/08 07:32:11;;;;;;;0.70;0.40;;;12.90;66.90;;;;;;5108680;28;20204;-65
2023/10/08 07:34:38;;;;;;;1.17;0.53;;;12.80;66.70;;;;;;5110963;28;20186;-65
2023/10/08 07:37:06;;;;;;;0.97;0.57;;;12.90;66.80;;;;;;5110137;28;20200;-65
2023/10/08 07:39:43;;;;;;;0.60;0.60;;;13.00;66.40;;;;;;5108803;28;20239;-65
2023/10/08 07:42:10;;;;;;;0.77;0.60;;;13.00;65.90;;;;;;5111588;28;20253;-65
2023/10/08 07:44:39;;;;;;;0.47;0.47;;;13.00;65.70;;;;;;5108190;28;20222;-64
2023/10/08 07:47:10;;;;;;;1.07;0.63;;;13.10;65.60;;;;;;5111957;27;20614;-64
2023/10/08 07:49:37;;;;;;;1.13;0.50;;;13.10;65.60;;;;;;5110959;28;20254;-64
2023/10/08 07:52:07;;;;;;;1.87;0.70;;;13.10;65.80;;;;;;5106962;28;20537;-64
2023/10/08 07:54:35;;;;;;;1.17;0.50;;;13.10;65.30;;;;;;5110001;27;20308;-63
2023/10/08 07:57:09;;;;;;;0.73;0.50;;;13.20;65.30;;;;;;5110060;28;20623;-64
2023/10/08 07:59:38;;;;;;;1.27;0.67;;;13.30;65.10;;;;;;5140609;27;20214;-64
2023/10/08 08:02:09;;;;;;;2.67;0.60;;;13.30;65.00;;;;;;5110659;28;20207;-64
2023/10/08 08:04:37;;;;;;;6.33;0.80;;;13.40;65.10;;;;;;5136357;27;20213;-64
2023/10/08 08:07:05;;;;;;;0.70;0.50;;;13.40;64.50;;;;;;5105810;28;20675;-64
2023/10/08 08:09:37;;;;;;;1.13;0.63;;;13.40;64.40;;;;;;5108220;28;20653;-64
2023/10/08 08:12:11;;;;;;;0.60;0.57;;;13.40;63.30;;;;;;5097166;28;20565;-64
2023/10/08 08:14:41;;;;;;;0.40;0.40;;;13.40;62.80;;;;;;5103659;27;20193;-65
2023/10/08 08:17:14;;;;;;;1.13;0.40;;;13.30;62.80;;;;;;5106002;27;20617;-64
2023/10/08 08:19:46;;;;;;;0.60;0.60;;;13.30;63.00;;;;;;5106357;28;20242;-64
2023/10/08 08:22:20;;;;;;;0.57;0.57;;;13.40;63.00;;;;;;5104076;28;20200;-63
2023/10/08 08:24:48;;;;;;;3.20;0.77;;;13.40;62.50;;;;;;5099589;27;20206;-64
2023/10/08 08:27:23;;;;;;;0.67;0.50;;;13.40;62.00;;;;;;5100387;28;20566;-63
2023/10/08 08:29:52;;;;;;;2.27;0.73;;;13.50;61.70;;;;;;5104660;28;20193;-64
2023/10/08 08:32:21;;;;;;;1.60;0.73;;;13.50;60.80;;;;;;5097607;28;20852;-64
2023/10/08 08:34:50;;;;;;;2.10;0.53;;;13.50;60.30;;;;;;5097111;27;20193;-63
2023/10/08 08:37:17;;;;;;;1.00;0.50;;;13.50;59.80;;;;;;5107311;28;20601;-63
2023/10/08 08:39:45;;;;;;;1.73;0.77;;;13.50;59.30;;;;;;5105464;27;20196;-64
2023/10/08 08:42:14;;;;;;;0.50;0.50;;;13.50;58.70;;;;;;5109284;28;20193;-63
2023/10/08 08:44:45;;;;;;;0.43;0.43;;;13.50;58.80;;;;;;5108948;28;20689;-64
2023/10/08 08:47:17;;;;;;;0.60;0.50;;;13.50;58.70;;;;;;5110072;27;20193;-64
2023/10/08 08:49:55;;;;;;;0.50;0.50;;;13.50;58.60;;;;;;5109333;28;20203;-63
2023/10/08 08:52:22;;;;;;;0.87;0.60;;;13.50;58.60;;;;;;5097956;28;20242;-64
2023/10/08 08:54:49;;;;;;;1.03;0.60;;;13.60;58.80;;;;;;5106419;28;20309;-65
2023/10/08 08:57:16;;;;;;;1.03;0.70;;;13.60;58.90;;;;;;5109104;28;20533;-64
2023/10/08 08:59:50;;;;;;;0.50;0.50;;;13.60;58.50;;;;;;5103929;28;20222;-64
2023/10/08 09:02:18;;;;;;;0.50;0.50;;;13.70;58.10;;;;;;5108909;28;20204;-64
2023/10/08 09:04:47;;;;;;;0.50;0.50;;;13.60;57.90;;;;;;5103914;28;20526;-63
2023/10/08 09:07:22;;;;;;;1.40;0.70;;;13.60;57.50;;;;;;5111159;28;20200;-64
2023/10/08 09:09:50;;;;;;;0.33;0.30;;;13.60;57.70;;;;;;5115721;27;20315;-65
2023/10/08 09:12:18;;;;;;;0.80;0.70;;;13.70;57.50;;;;;;5106745;28;20270;-64
2023/10/08 09:14:47;;;;;;;1.27;0.70;;;13.60;57.50;;;;;;5112743;27;20213;-64
2023/10/08 09:17:17;;;;;;;0.73;0.53;;;13.70;57.30;;;;;;5115343;28;20285;-64
2023/10/08 09:19:45;;;;;;;1.67;0.70;;;13.70;57.50;;;;;;5115162;27;20391;-64
2023/10/08 09:22:14;;;;;;;0.63;0.60;;;13.70;57.70;;;;;;5112281;27;20555;-64
2023/10/08 09:24:43;;;;;;;0.93;0.57;;;13.80;57.90;;;;;;5114127;27;20212;-64
2023/10/08 09:27:14;;;;;;;0.70;0.50;;;13.80;58.00;;;;;;5113934;28;20283;-64
2023/10/08 09:29:41;;;;;;;0.50;0.50;;;13.90;57.90;;;;;;5113973;27;20554;-64
2023/10/08 09:32:10;;;;;;;3.97;0.70;;;13.90;57.90;;;;;;5116020;28;20198;-63
2023/10/08 09:34:38;;;;;;;0.50;0.50;;;13.90;56.80;;;;;;5104949;27;20589;-64
2023/10/08 09:37:05;;;;;;;2.67;0.60;;;14.00;56.20;;;;;;5112976;28;20750;-65
2023/10/08 09:39:34;;;;;;;0.67;0.53;;;14.00;56.20;;;;;;5115446;27;20201;-65
2023/10/08 09:42:06;;;;;;;1.03;0.60;;;14.00;56.10;;;;;;5111949;28;20210;-65
2023/10/08 09:44:33;;;;;;;1.00;0.70;;;14.10;56.10;;;;;;5115546;27;20281;-65
2023/10/08 09:47:05;;;;;;;3.40;0.70;;;14.20;55.20;;;;;;5109709;27;20190;-65
2023/10/08 09:49:34;;;;;;;0.93;0.70;;;14.40;54.80;;;;;;5114744;27;20221;-64
2023/10/08 09:52:05;;;;;;;0.43;0.43;;;14.70;55.80;;;;;;5114158;28;20243;-64
2023/10/08 09:54:40;;;;;;;2.33;0.60;;;15.00;55.70;;;;;;5111738;28;20594;-64
2023/10/08 09:57:08;;;;;;;1.20;0.60;;;15.30;55.50;;;;;;5112754;27;20206;-65
2023/10/08 09:59:37;;;;;;;0.83;0.63;;;15.90;54.90;;;;;;5113066;27;20210;-64
2023/10/08 10:02:09;;;;;;;1.63;0.87;;;17.10;53.80;;;;;;5111136;27;20187;-64
2023/10/08 10:04:36;;;;;;;0.70;0.70;;;18.60;52.80;;;;;;5114720;27;20211;-63
2023/10/08 10:07:12;;;;;;;2.20;0.60;;;19.90;51.40;;;;;;5111489;27;20191;-64
2023/10/08 10:09:44;;;;;;;0.50;0.50;;;20.90;49.10;;;;;;5107216;27;20216;-64
2023/10/08 10:12:18;;;;;;;0.40;0.40;;;21.50;47.40;;;;;;5115082;27;20544;-64
2023/10/08 10:14:48;;;;;;;1.15;0.60;;;21.90;45.70;;;;;;5114019;27;20294;-65
2023/10/08 10:17:18;;;;;;;0.65;0.65;;;22.20;44.40;;;;;;5110335;27;20196;-64
2023/10/08 10:19:50;;;;;;;0.40;0.40;;;22.40;43.60;;;;;;5111132;27;20193;-64
2023/10/08 10:22:29;;;;;;;0.77;0.77;;;22.50;43.50;;;;;;5106529;28;20199;-64
2023/10/08 10:24:57;;;;;;;0.60;0.60;;;22.40;43.40;;;;;;5111365;27;20277;-64
2023/10/08 10:27:26;;;;;;;0.60;0.60;;;22.80;42.90;;;;;;5106132;28;20196;-64
2023/10/08 10:30:08;;;;;;;0.50;0.50;;;22.30;42.80;;;;;;5140439;27;20548;-64
2023/10/08 10:32:35;;;;;;;0.50;0.50;;;22.00;43.00;;;;;;5107639;28;20294;-64
2023/10/08 10:35:06;;;;;;;0.57;0.57;;;21.50;43.30;;;;;;5108669;28;20188;-64
2023/10/08 10:37:41;;;;;;;0.43;0.43;;;21.10;43.70;;;;;;5102001;28;20708;-64
2023/10/08 10:40:12;;;;;;;0.68;0.68;;;20.60;43.20;;;;;;5107846;28;20547;-65
2023/10/08 10:42:54;;;;;;;0.60;0.60;;;20.20;43.50;;;;;;5102394;28;20199;-64
2023/10/08 10:45:40;;;;;;;1.05;0.57;;;19.70;43.70;;;;;;5110075;28;20235;-65
2023/10/08 10:48:12;;;;;;;0.50;0.50;;;19.20;42.80;;;;;;5109175;28;20682;-64
2023/10/08 10:50:48;;;;;;;0.47;0.47;;;18.70;43.00;;;;;;5107525;28;20208;-64
2023/10/08 10:53:17;;;;;;;0.65;0.65;;;18.20;43.20;;;;;;5109520;28;20202;-64
2023/10/08 10:55:58;;;;;;;1.17;0.65;;;17.80;43.40;;;;;;5101177;28;20188;-64
2023/10/08 10:58:28;;;;;;;0.75;0.75;;;17.50;43.70;;;;;;5108763;27;20660;-64
2023/10/08 11:00:59;;;;;;;1.30;0.67;;;17.20;44.20;;;;;;5105048;27;20390;-64
2023/10/08 11:03:28;;;;;;;1.02;0.70;;;16.90;44.90;;;;;;5107184;27;20199;-64
2023/10/08 11:06:05;;;;;;;0.77;0.73;;;16.70;45.30;;;;;;5108264;28;20218;-65
2023/10/08 11:08:35;;;;;;;0.73;0.60;;;16.50;45.90;;;;;;5105982;27;20194;-64
2023/10/08 11:11:05;;;;;;;0.70;0.60;;;16.30;46.50;;;;;;5107615;28;20208;-64
2023/10/08 11:13:41;;;;;;;5.63;0.77;;;16.20;47.00;;;;;;5108500;28;20245;-65
2023/10/08 11:16:13;;;;;;;0.80;0.60;;;16.00;47.30;;;;;;5104772;28;20302;-65
2023/10/08 11:18:44;;;;;;;0.93;0.70;;;15.80;47.80;;;;;;5106772;28;20199;-64
2023/10/08 11:21:17;;;;;;;2.83;0.73;;;15.70;48.30;;;;;;5108172;28;20304;-65
2023/10/08 11:23:52;;;;;;;1.17;0.70;;;15.50;48.10;;;;;;5106800;28;20183;-65
2023/10/08 11:26:31;;;;;;;1.77;0.70;;;15.50;48.50;;;;;;5110565;28;20241;-63
2023/10/08 11:29:02;;;;;;;0.60;0.50;;;15.40;48.40;;;;;;5105168;27;20192;-64
2023/10/08 11:31:33;;;;;;;0.73;0.57;;;15.30;48.10;;;;;;5107558;28;20259;-64
2023/10/08 11:34:01;;;;;;;1.07;0.80;;;15.30;48.50;;;;;;5110049;27;20184;-63
2023/10/08 11:36:31;;;;;;;0.60;0.60;;;15.30;48.60;;;;;;5109649;28;20641;-64
2023/10/08 11:39:11;;;;;;;0.60;0.60;;;15.20;48.80;;;;;;5105668;27;20203;-65
2023/10/08 11:41:49;;;;;;;1.23;0.90;;;15.20;49.20;;;;;;5109104;28;20536;-65
2023/10/08 11:44:19;;;;;;;0.73;0.50;;;15.10;49.30;;;;;;5108385;28;20268;-64
2023/10/08 11:46:51;;;;;;;1.23;0.77;;;15.00;49.30;;;;;;5127329;27;20245;-64
2023/10/08 11:49:18;;;;;;;1.33;0.63;;;15.00;49.40;;;;;;5109388;28;20230;-64
2023/10/08 11:51:46;;;;;;;4.37;0.87;;;15.00;49.60;;;;;;5107618;28;20261;-64
2023/10/08 11:54:14;;;;;;;0.80;0.70;;;14.90;49.80;;;;;;5110997;28;20313;-64
2023/10/08 11:56:41;;;;;;;0.80;0.70;;;14.90;49.80;;;;;;5111585;28;20191;-65
2023/10/08 11:59:18;;;;;;;0.67;0.63;;;14.90;49.90;;;;;;5107880;28;20197;-64
2023/10/08 12:01:52;;;;;;;0.50;0.50;;;14.80;50.10;;;;;;5111787;28;20586;-64
2023/10/08 12:04:22;;;;;;;0.87;0.60;;;14.80;50.40;;;;;;5111031;28;20226;-65
2023/10/08 12:06:55;;;;;;;0.50;0.50;;;14.90;51.10;;;;;;5140034;27;20256;-64
2023/10/08 12:09:27;;;;;;;2.30;0.70;;;14.90;51.40;;;;;;5106646;28;20202;-63
2023/10/08 12:11:57;;;;;;;0.77;0.67;;;14.90;51.90;;;;;;5110074;28;20199;-64
2023/10/08 12:14:30;;;;;;;0.97;0.70;;;14.90;51.90;;;;;;5108411;28;20195;-64
2023/10/08 12:17:10;;;;;;;0.87;0.70;;;15.00;51.70;;;;;;5110961;28;20223;-64
2023/10/08 12:19:40;;;;;;;2.53;0.40;;;15.00;51.60;;;;;;5107487;28;20282;-64
2023/10/08 12:22:08;;;;;;;0.50;0.50;;;15.00;51.50;;;;;;5110125;28;20686;-64
2023/10/08 12:24:38;;;;;;;0.73;0.67;;;15.10;51.50;;;;;;5110373;27;20712;-64
2023/10/08 12:27:05;;;;;;;0.80;0.50;;;15.20;51.50;;;;;;5106386;28;20204;-64
2023/10/08 12:29:35;;;;;;;1.43;0.67;;;15.40;51.60;;;;;;5107515;28;20237;-64
2023/10/08 12:32:08;;;;;;;1.43;0.70;;;15.60;51.40;;;;;;5110823;28;20198;-64
2023/10/08 12:34:36;;;;;;;0.90;0.70;;;15.80;50.40;;;;;;5106758;28;20206;-64
2023/10/08 12:37:07;;;;;;;1.87;0.70;;;16.20;50.40;;;;;;5108506;27;20253;-64
2023/10/08 12:39:52;;;;;;;1.30;0.73;;;16.50;50.80;;;;;;5108100;28;20275;-64
2023/10/08 12:42:20;;;;;;;1.67;0.70;;;17.00;49.70;;;;;;5109676;28;20191;-64
2023/10/08 12:44:48;;;;;;;0.80;0.80;;;17.20;49.50;;;;;;5109861;28;20659;-63
2023/10/08 12:47:16;;;;;;;0.90;0.50;;;17.30;49.30;;;;;;5106999;28;20200;-64
2023/10/08 12:49:46;;;;;;;0.50;0.50;;;17.30;49.30;;;;;;5108673;28;20192;-65
2023/10/08 12:52:14;;;;;;;0.53;0.53;;;17.40;49.50;;;;;;5107533;28;20657;-65
2023/10/08 12:54:45;;;;;;;1.33;0.77;;;17.50;49.70;;;;;;5106465;28;20241;-65
2023/10/08 12:57:16;;;;;;;0.67;0.60;;;17.60;49.90;;;;;;5110226;28;20563;-63
2023/10/08 12:59:48;;;;;;;0.73;0.73;;;18.00;49.90;;;;;;5108494;28;20623;-64
2023/10/08 13:02:16;;;;;;;1.33;1.00;;;18.30;49.00;;;;;;5104556;28;20266;-64
2023/10/08 13:04:46;;;;;;;1.33;0.70;;;18.40;48.60;;;;;;5109781;28;20282;-65
2023/10/08 13:07:14;;;;;;;0.50;0.50;;;18.20;48.30;;;;;;5104789;28;20220;-64
2023/10/08 13:09:42;;;;;;;1.17;0.50;;;18.00;48.30;;;;;;5105924;28;20551;-64
2023/10/08 13:12:10;;;;;;;0.93;0.70;;;17.70;47.80;;;;;;5108637;28;20236;-64
2023/10/08 13:14:37;;;;;;;0.67;0.67;;;17.40;48.20;;;;;;5106499;28;20208;-64
2023/10/08 13:17:04;;;;;;;0.67;0.53;;;17.20;48.50;;;;;;5110114;28;20666;-65
2023/10/08 13:19:33;;;;;;;0.43;0.43;;;17.00;49.00;;;;;;5109341;28;20184;-64
2023/10/08 13:22:00;;;;;;;0.53;0.53;;;16.80;49.60;;;;;;5106791;28;20189;-64
2023/10/08 13:24:29;;;;;;;0.60;0.60;;;16.60;49.00;;;;;;5107908;28;20231;-64
2023/10/08 13:26:58;;;;;;;1.07;0.50;;;16.50;49.30;;;;;;5110371;28;20196;-65
2023/10/08 13:29:26;;;;;;;0.67;0.67;;;16.30;49.60;;;;;;5106288;28;20192;-65
2023/10/08 13:31:54;;;;;;;0.40;0.40;;;16.10;50.10;;;;;;5109897;28;20192;-65
2023/10/08 13:34:21;;;;;;;0.67;0.57;;;15.90;50.10;;;;;;5140710;27;20319;-63